sensor_id;sensor_type;location;lat;lon;timestamp;P1;durP1;ratioP1;P2;durP2;ratioP2
5032;SDS011;2535;49.888;8.942;2023-07-29T00:00:24;33.70;;;1.23;;
5032;SDS011;2535;49.888;8.942;2023-07-29T00:02:52;33.70;;;1.30;;
5032;SDS011;2535;49.888;8.942;2023-07-29T00:05:18;33.80;;;1.50;;
5032;SDS011;2535;49.888;8.942;2023-07-29T00:07:44;34.37;;;1.70;;
5032;SDS011;2535;49.888;8.942;2023-07-29T00:10:10;33.67;;;1.77;;
5032;SDS011;2535;49.888;8.942;2023-07-29T00:12:36;33.67;;;1.43;;
5032;SDS011;2535;49.888;8.942;2023-07-29T00:15:02;33.40;;;1.40;;
5032;SDS011;2535;49.888;8.942;2023-07-29T00:17:28;32.73;;;1.20;;
5032;SDS011;2535;49.888;8.942;2023-07-29T00:19:54;32.87;;;1.20;;
5032;SDS011;2535;49.888;8.942;2023-07-29T00:22:20;33.13;;;1.40;;
5032;SDS011;2535;49.888;8.942;2023-07-29T00:24:51;33.20;;;1.53;;
5032;SDS011;2535;49.888;8.942;2023-07-29T00:27:18;32.50;;;1.40;;
5032;SDS011;2535;49.888;8.942;2023-07-29T00:29:44;33.80;;;1.77;;
5032;SDS011;2535;49.888;8.942;2023-07-29T00:32:10;32.50;;;1.30;;
5032;SDS011;2535;49.888;8.942;2023-07-29T00:34:36;32.47;;;1.23;;
5032;SDS011;2535;49.888;8.942;2023-07-29T00:37:02;33.03;;;1.70;;
5032;SDS011;2535;49.888;8.942;2023-07-29T00:39:28;32.40;;;1.30;;
5032;SDS011;2535;49.888;8.942;2023-07-29T00:41:54;32.63;;;1.30;;
5032;SDS011;2535;49.888;8.942;2023-07-29T00:44:20;32.37;;;1.60;;
5032;SDS011;2535;49.888;8.942;2023-07-29T00:46:46;32.03;;;1.33;;
5032;SDS011;2535;49.888;8.942;2023-07-29T00:49:12;32.30;;;1.30;;
5032;SDS011;2535;49.888;8.942;2023-07-29T00:51:39;32.40;;;1.30;;
5032;SDS011;2535;49.888;8.942;2023-07-29T00:54:04;32.30;;;1.30;;
5032;SDS011;2535;49.888;8.942;2023-07-29T00:56:31;32.60;;;1.40;;
5032;SDS011;2535;49.888;8.942;2023-07-29T00:58:57;32.30;;;1.40;;
5032;SDS011;2535;49.888;8.942;2023-07-29T01:01:26;32.17;;;1.17;;
5032;SDS011;2535;49.888;8.942;2023-07-29T01:03:52;32.70;;;1.70;;
5032;SDS011;2535;49.888;8.942;2023-07-29T01:06:23;32.47;;;1.20;;
5032;SDS011;2535;49.888;8.942;2023-07-29T01:09:03;32.67;;;1.40;;
5032;SDS011;2535;49.888;8.942;2023-07-29T01:11:33;32.90;;;1.30;;
5032;SDS011;2535;49.888;8.942;2023-07-29T01:14:05;33.40;;;1.40;;
5032;SDS011;2535;49.888;8.942;2023-07-29T01:16:35;32.50;;;1.30;;
5032;SDS011;2535;49.888;8.942;2023-07-29T01:19:04;32.60;;;1.40;;
5032;SDS011;2535;49.888;8.942;2023-07-29T01:21:35;32.80;;;1.40;;
5032;SDS011;2535;49.888;8.942;2023-07-29T01:24:01;32.40;;;1.30;;
5032;SDS011;2535;49.888;8.942;2023-07-29T01:26:27;32.30;;;1.10;;
5032;SDS011;2535;49.888;8.942;2023-07-29T01:28:54;32.10;;;1.10;;
5032;SDS011;2535;49.888;8.942;2023-07-29T01:31:33;32.17;;;1.30;;
5032;SDS011;2535;49.888;8.942;2023-07-29T01:34:44;32.27;;;1.40;;
5032;SDS011;2535;49.888;8.942;2023-07-29T01:36:50;32.87;;;1.30;;
5032;SDS011;2535;49.888;8.942;2023-07-29T01:39:17;33.00;;;1.53;;
5032;SDS011;2535;49.888;8.942;2023-07-29T01:41:43;32.03;;;1.30;;
5032;SDS011;2535;49.888;8.942;2023-07-29T01:44:09;32.40;;;1.40;;
5032;SDS011;2535;49.888;8.942;2023-07-29T01:46:36;32.60;;;1.40;;
5032;SDS011;2535;49.888;8.942;2023-07-29T01:49:02;32.30;;;1.40;;
5032;SDS011;2535;49.888;8.942;2023-07-29T01:51:28;32.73;;;1.40;;
5032;SDS011;2535;49.888;8.942;2023-07-29T01:53:54;32.90;;;1.30;;
5032;SDS011;2535;49.888;8.942;2023-07-29T01:56:20;32.27;;;1.33;;
5032;SDS011;2535;49.888;8.942;2023-07-29T01:58:46;32.17;;;1.13;;
5032;SDS011;2535;49.888;8.942;2023-07-29T02:01:12;32.10;;;1.27;;
5032;SDS011;2535;49.888;8.942;2023-07-29T02:03:38;32.20;;;1.33;;
5032;SDS011;2535;49.888;8.942;2023-07-29T02:06:04;32.40;;;1.60;;
5032;SDS011;2535;49.888;8.942;2023-07-29T02:08:30;31.67;;;1.10;;
5032;SDS011;2535;49.888;8.942;2023-07-29T02:10:56;33.70;;;1.20;;
5032;SDS011;2535;49.888;8.942;2023-07-29T02:13:22;31.83;;;1.30;;
5032;SDS011;2535;49.888;8.942;2023-07-29T02:15:48;32.40;;;1.40;;
5032;SDS011;2535;49.888;8.942;2023-07-29T02:18:14;32.47;;;1.17;;
5032;SDS011;2535;49.888;8.942;2023-07-29T02:20:40;32.60;;;1.40;;
5032;SDS011;2535;49.888;8.942;2023-07-29T02:23:13;32.20;;;1.37;;
5032;SDS011;2535;49.888;8.942;2023-07-29T02:25:39;32.20;;;1.30;;
5032;SDS011;2535;49.888;8.942;2023-07-29T02:28:05;33.53;;;1.73;;
5032;SDS011;2535;49.888;8.942;2023-07-29T02:30:31;32.10;;;1.30;;
5032;SDS011;2535;49.888;8.942;2023-07-29T02:32:57;31.83;;;1.13;;
5032;SDS011;2535;49.888;8.942;2023-07-29T02:35:24;32.20;;;1.20;;
5032;SDS011;2535;49.888;8.942;2023-07-29T02:37:50;32.30;;;1.23;;
5032;SDS011;2535;49.888;8.942;2023-07-29T02:40:16;32.47;;;1.30;;
5032;SDS011;2535;49.888;8.942;2023-07-29T02:42:42;33.10;;;1.53;;
5032;SDS011;2535;49.888;8.942;2023-07-29T02:45:08;32.30;;;1.10;;
5032;SDS011;2535;49.888;8.942;2023-07-29T02:47:36;32.97;;;1.47;;
5032;SDS011;2535;49.888;8.942;2023-07-29T02:50:02;33.20;;;1.33;;
5032;SDS011;2535;49.888;8.942;2023-07-29T02:52:28;33.40;;;1.33;;
5032;SDS011;2535;49.888;8.942;2023-07-29T02:54:54;33.60;;;1.27;;
5032;SDS011;2535;49.888;8.942;2023-07-29T02:57:20;33.80;;;1.13;;
5032;SDS011;2535;49.888;8.942;2023-07-29T02:59:46;35.00;;;1.67;;
5032;SDS011;2535;49.888;8.942;2023-07-29T03:02:12;34.83;;;1.40;;
5032;SDS011;2535;49.888;8.942;2023-07-29T03:04:38;35.27;;;1.30;;
5032;SDS011;2535;49.888;8.942;2023-07-29T03:07:04;36.00;;;1.40;;
5032;SDS011;2535;49.888;8.942;2023-07-29T03:09:29;35.63;;;1.30;;
5032;SDS011;2535;49.888;8.942;2023-07-29T03:11:55;36.10;;;1.20;;
5032;SDS011;2535;49.888;8.942;2023-07-29T03:14:21;36.13;;;1.57;;
5032;SDS011;2535;49.888;8.942;2023-07-29T03:16:47;35.67;;;1.30;;
5032;SDS011;2535;49.888;8.942;2023-07-29T03:19:14;36.10;;;1.30;;
5032;SDS011;2535;49.888;8.942;2023-07-29T03:21:40;36.67;;;1.40;;
5032;SDS011;2535;49.888;8.942;2023-07-29T03:24:06;37.70;;;1.37;;
5032;SDS011;2535;49.888;8.942;2023-07-29T03:26:32;38.60;;;1.53;;
5032;SDS011;2535;49.888;8.942;2023-07-29T03:28:58;38.07;;;1.50;;
5032;SDS011;2535;49.888;8.942;2023-07-29T03:31:24;39.97;;;1.50;;
5032;SDS011;2535;49.888;8.942;2023-07-29T03:33:50;38.33;;;1.37;;
5032;SDS011;2535;49.888;8.942;2023-07-29T03:36:16;38.27;;;1.50;;
5032;SDS011;2535;49.888;8.942;2023-07-29T03:38:44;38.07;;;1.37;;
5032;SDS011;2535;49.888;8.942;2023-07-29T03:41:10;38.20;;;1.57;;
5032;SDS011;2535;49.888;8.942;2023-07-29T03:43:36;38.17;;;1.40;;
5032;SDS011;2535;49.888;8.942;2023-07-29T03:46:02;40.13;;;1.67;;
5032;SDS011;2535;49.888;8.942;2023-07-29T03:48:28;38.20;;;1.30;;
5032;SDS011;2535;49.888;8.942;2023-07-29T03:50:56;38.13;;;1.30;;
5032;SDS011;2535;49.888;8.942;2023-07-29T03:53:22;41.60;;;1.60;;
5032;SDS011;2535;49.888;8.942;2023-07-29T03:55:48;38.10;;;1.23;;
5032;SDS011;2535;49.888;8.942;2023-07-29T03:58:15;38.20;;;1.20;;
5032;SDS011;2535;49.888;8.942;2023-07-29T04:00:41;38.47;;;1.47;;
5032;SDS011;2535;49.888;8.942;2023-07-29T04:03:08;58.43;;;1.90;;
5032;SDS011;2535;49.888;8.942;2023-07-29T04:05:36;38.27;;;1.50;;
5032;SDS011;2535;49.888;8.942;2023-07-29T04:08:02;38.70;;;1.70;;
5032;SDS011;2535;49.888;8.942;2023-07-29T04:10:28;38.20;;;1.37;;
5032;SDS011;2535;49.888;8.942;2023-07-29T04:12:56;38.30;;;1.60;;
5032;SDS011;2535;49.888;8.942;2023-07-29T04:15:22;37.77;;;1.40;;
5032;SDS011;2535;49.888;8.942;2023-07-29T04:17:48;38.20;;;1.37;;
5032;SDS011;2535;49.888;8.942;2023-07-29T04:20:14;37.30;;;1.30;;
5032;SDS011;2535;49.888;8.942;2023-07-29T04:22:40;38.83;;;1.80;;
5032;SDS011;2535;49.888;8.942;2023-07-29T04:25:06;37.23;;;1.37;;
5032;SDS011;2535;49.888;8.942;2023-07-29T04:27:32;37.27;;;1.30;;
5032;SDS011;2535;49.888;8.942;2023-07-29T04:29:58;37.20;;;1.23;;
5032;SDS011;2535;49.888;8.942;2023-07-29T04:32:24;37.50;;;1.50;;
5032;SDS011;2535;49.888;8.942;2023-07-29T04:34:50;37.10;;;1.20;;
5032;SDS011;2535;49.888;8.942;2023-07-29T04:37:16;37.77;;;1.43;;
5032;SDS011;2535;49.888;8.942;2023-07-29T04:39:42;36.87;;;1.40;;
5032;SDS011;2535;49.888;8.942;2023-07-29T04:42:08;37.50;;;1.50;;
5032;SDS011;2535;49.888;8.942;2023-07-29T04:44:34;36.97;;;1.30;;
5032;SDS011;2535;49.888;8.942;2023-07-29T04:47:00;37.20;;;1.10;;
5032;SDS011;2535;49.888;8.942;2023-07-29T04:49:26;38.47;;;1.30;;
5032;SDS011;2535;49.888;8.942;2023-07-29T04:51:52;38.77;;;1.90;;
5032;SDS011;2535;49.888;8.942;2023-07-29T04:54:18;37.63;;;1.47;;
5032;SDS011;2535;49.888;8.942;2023-07-29T04:56:45;38.17;;;1.50;;
5032;SDS011;2535;49.888;8.942;2023-07-29T04:59:11;37.70;;;1.30;;
5032;SDS011;2535;49.888;8.942;2023-07-29T05:01:38;37.87;;;1.40;;
5032;SDS011;2535;49.888;8.942;2023-07-29T05:04:04;37.70;;;1.60;;
5032;SDS011;2535;49.888;8.942;2023-07-29T05:06:30;37.67;;;1.37;;
5032;SDS011;2535;49.888;8.942;2023-07-29T05:08:59;37.90;;;1.40;;
5032;SDS011;2535;49.888;8.942;2023-07-29T05:11:25;38.00;;;1.40;;
5032;SDS011;2535;49.888;8.942;2023-07-29T05:13:51;37.60;;;1.40;;
5032;SDS011;2535;49.888;8.942;2023-07-29T05:16:17;38.67;;;1.80;;
5032;SDS011;2535;49.888;8.942;2023-07-29T05:18:43;37.10;;;1.33;;
5032;SDS011;2535;49.888;8.942;2023-07-29T05:21:09;37.70;;;1.40;;
5032;SDS011;2535;49.888;8.942;2023-07-29T05:23:36;37.03;;;1.30;;
5032;SDS011;2535;49.888;8.942;2023-07-29T05:26:02;36.87;;;1.20;;
5032;SDS011;2535;49.888;8.942;2023-07-29T05:28:28;36.90;;;1.57;;
5032;SDS011;2535;49.888;8.942;2023-07-29T05:30:54;37.97;;;1.60;;
5032;SDS011;2535;49.888;8.942;2023-07-29T05:33:20;40.00;;;1.50;;
5032;SDS011;2535;49.888;8.942;2023-07-29T05:35:46;36.17;;;1.17;;
5032;SDS011;2535;49.888;8.942;2023-07-29T05:38:12;36.13;;;1.40;;
5032;SDS011;2535;49.888;8.942;2023-07-29T05:40:38;36.10;;;1.47;;
5032;SDS011;2535;49.888;8.942;2023-07-29T05:43:04;35.43;;;1.27;;
5032;SDS011;2535;49.888;8.942;2023-07-29T05:45:30;35.30;;;1.23;;
5032;SDS011;2535;49.888;8.942;2023-07-29T05:47:56;35.43;;;1.30;;
5032;SDS011;2535;49.888;8.942;2023-07-29T05:50:22;35.60;;;1.43;;
5032;SDS011;2535;49.888;8.942;2023-07-29T05:52:48;35.20;;;1.47;;
5032;SDS011;2535;49.888;8.942;2023-07-29T05:55:14;34.70;;;1.40;;
5032;SDS011;2535;49.888;8.942;2023-07-29T05:57:40;34.07;;;1.30;;
5032;SDS011;2535;49.888;8.942;2023-07-29T06:00:06;34.60;;;1.63;;
5032;SDS011;2535;49.888;8.942;2023-07-29T06:02:32;34.47;;;1.30;;
5032;SDS011;2535;49.888;8.942;2023-07-29T06:04:58;33.50;;;1.10;;
5032;SDS011;2535;49.888;8.942;2023-07-29T06:07:24;33.20;;;1.20;;
5032;SDS011;2535;49.888;8.942;2023-07-29T06:09:53;35.60;;;1.60;;
5032;SDS011;2535;49.888;8.942;2023-07-29T06:12:20;32.93;;;1.00;;
5032;SDS011;2535;49.888;8.942;2023-07-29T06:14:46;33.00;;;1.07;;
5032;SDS011;2535;49.888;8.942;2023-07-29T06:17:12;34.23;;;1.67;;
5032;SDS011;2535;49.888;8.942;2023-07-29T06:19:38;33.17;;;1.30;;
5032;SDS011;2535;49.888;8.942;2023-07-29T06:22:04;33.30;;;1.27;;
5032;SDS011;2535;49.888;8.942;2023-07-29T06:24:30;33.60;;;1.43;;
5032;SDS011;2535;49.888;8.942;2023-07-29T06:26:57;33.20;;;1.47;;
5032;SDS011;2535;49.888;8.942;2023-07-29T06:29:23;33.00;;;1.23;;
5032;SDS011;2535;49.888;8.942;2023-07-29T06:31:49;32.97;;;1.73;;
5032;SDS011;2535;49.888;8.942;2023-07-29T06:34:16;32.30;;;1.27;;
5032;SDS011;2535;49.888;8.942;2023-07-29T06:36:42;32.30;;;1.33;;
5032;SDS011;2535;49.888;8.942;2023-07-29T06:39:08;32.50;;;1.30;;
5032;SDS011;2535;49.888;8.942;2023-07-29T06:41:34;35.77;;;1.57;;
5032;SDS011;2535;49.888;8.942;2023-07-29T06:44:00;33.13;;;1.30;;
5032;SDS011;2535;49.888;8.942;2023-07-29T06:46:26;33.47;;;1.23;;
5032;SDS011;2535;49.888;8.942;2023-07-29T06:48:52;33.60;;;1.40;;
5032;SDS011;2535;49.888;8.942;2023-07-29T06:51:18;32.87;;;1.17;;
5032;SDS011;2535;49.888;8.942;2023-07-29T06:53:44;32.90;;;1.43;;
5032;SDS011;2535;49.888;8.942;2023-07-29T06:56:10;33.40;;;1.27;;
5032;SDS011;2535;49.888;8.942;2023-07-29T06:58:38;34.27;;;1.67;;
5032;SDS011;2535;49.888;8.942;2023-07-29T07:01:04;34.03;;;1.60;;
5032;SDS011;2535;49.888;8.942;2023-07-29T07:03:30;33.87;;;1.40;;
5032;SDS011;2535;49.888;8.942;2023-07-29T07:05:56;34.77;;;1.60;;
5032;SDS011;2535;49.888;8.942;2023-07-29T07:08:22;34.50;;;1.30;;
5032;SDS011;2535;49.888;8.942;2023-07-29T07:10:48;34.67;;;1.30;;
5032;SDS011;2535;49.888;8.942;2023-07-29T07:13:14;35.30;;;1.40;;
5032;SDS011;2535;49.888;8.942;2023-07-29T07:15:40;42.13;;;1.63;;
5032;SDS011;2535;49.888;8.942;2023-07-29T07:18:06;36.10;;;1.23;;
5032;SDS011;2535;49.888;8.942;2023-07-29T07:20:32;37.03;;;1.37;;
5032;SDS011;2535;49.888;8.942;2023-07-29T07:22:58;38.77;;;1.37;;
5032;SDS011;2535;49.888;8.942;2023-07-29T07:25:24;36.47;;;1.47;;
5032;SDS011;2535;49.888;8.942;2023-07-29T07:27:50;43.67;;;2.10;;
5032;SDS011;2535;49.888;8.942;2023-07-29T07:30:16;38.10;;;1.77;;
5032;SDS011;2535;49.888;8.942;2023-07-29T07:32:42;37.70;;;1.60;;
5032;SDS011;2535;49.888;8.942;2023-07-29T07:35:08;42.83;;;1.60;;
5032;SDS011;2535;49.888;8.942;2023-07-29T07:37:34;38.30;;;1.80;;
5032;SDS011;2535;49.888;8.942;2023-07-29T07:40:00;40.97;;;1.53;;
5032;SDS011;2535;49.888;8.942;2023-07-29T07:42:26;37.30;;;1.53;;
5032;SDS011;2535;49.888;8.942;2023-07-29T07:44:52;36.97;;;1.20;;
5032;SDS011;2535;49.888;8.942;2023-07-29T07:47:18;36.90;;;1.43;;
5032;SDS011;2535;49.888;8.942;2023-07-29T07:49:43;36.77;;;1.20;;
5032;SDS011;2535;49.888;8.942;2023-07-29T07:52:09;37.47;;;1.50;;
5032;SDS011;2535;49.888;8.942;2023-07-29T07:54:35;36.80;;;1.20;;
5032;SDS011;2535;49.888;8.942;2023-07-29T07:57:01;36.70;;;1.30;;
5032;SDS011;2535;49.888;8.942;2023-07-29T07:59:27;37.30;;;1.50;;
5032;SDS011;2535;49.888;8.942;2023-07-29T08:01:53;36.87;;;1.07;;
5032;SDS011;2535;49.888;8.942;2023-07-29T08:04:19;37.10;;;1.40;;
5032;SDS011;2535;49.888;8.942;2023-07-29T08:06:45;37.20;;;1.20;;
5032;SDS011;2535;49.888;8.942;2023-07-29T08:09:11;37.50;;;1.20;;
5032;SDS011;2535;49.888;8.942;2023-07-29T08:11:37;37.43;;;1.17;;
5032;SDS011;2535;49.888;8.942;2023-07-29T08:14:03;37.57;;;1.10;;
5032;SDS011;2535;49.888;8.942;2023-07-29T08:16:29;37.80;;;1.40;;
5032;SDS011;2535;49.888;8.942;2023-07-29T08:18:55;36.60;;;1.10;;
5032;SDS011;2535;49.888;8.942;2023-07-29T08:21:22;37.00;;;1.10;;
5032;SDS011;2535;49.888;8.942;2023-07-29T08:23:48;36.63;;;1.30;;
5032;SDS011;2535;49.888;8.942;2023-07-29T08:26:14;36.07;;;1.40;;
5032;SDS011;2535;49.888;8.942;2023-07-29T08:28:41;36.40;;;1.30;;
5032;SDS011;2535;49.888;8.942;2023-07-29T08:31:07;36.10;;;1.10;;
5032;SDS011;2535;49.888;8.942;2023-07-29T08:33:33;37.67;;;1.77;;
5032;SDS011;2535;49.888;8.942;2023-07-29T08:36:00;36.00;;;1.20;;
5032;SDS011;2535;49.888;8.942;2023-07-29T08:38:26;36.10;;;1.20;;
5032;SDS011;2535;49.888;8.942;2023-07-29T08:43:29;35.23;;;1.20;;
5032;SDS011;2535;49.888;8.942;2023-07-29T08:45:56;35.50;;;1.30;;
5032;SDS011;2535;49.888;8.942;2023-07-29T08:48:32;35.07;;;1.20;;
5032;SDS011;2535;49.888;8.942;2023-07-29T08:51:03;36.57;;;1.20;;
5032;SDS011;2535;49.888;8.942;2023-07-29T08:53:29;36.17;;;1.20;;
5032;SDS011;2535;49.888;8.942;2023-07-29T08:55:55;34.87;;;1.20;;
5032;SDS011;2535;49.888;8.942;2023-07-29T08:58:21;35.17;;;1.30;;
5032;SDS011;2535;49.888;8.942;2023-07-29T09:00:48;34.23;;;1.20;;
5032;SDS011;2535;49.888;8.942;2023-07-29T09:03:14;34.57;;;1.30;;
5032;SDS011;2535;49.888;8.942;2023-07-29T09:05:40;34.43;;;1.20;;
5032;SDS011;2535;49.888;8.942;2023-07-29T09:08:06;34.03;;;1.20;;
5032;SDS011;2535;49.888;8.942;2023-07-29T09:10:36;34.13;;;1.00;;
5032;SDS011;2535;49.888;8.942;2023-07-29T09:13:04;34.97;;;1.30;;
5032;SDS011;2535;49.888;8.942;2023-07-29T09:15:31;37.60;;;1.50;;
5032;SDS011;2535;49.888;8.942;2023-07-29T09:17:58;36.00;;;1.40;;
5032;SDS011;2535;49.888;8.942;2023-07-29T09:20:27;34.70;;;1.03;;
5032;SDS011;2535;49.888;8.942;2023-07-29T09:22:54;35.03;;;1.40;;
5032;SDS011;2535;49.888;8.942;2023-07-29T09:25:22;36.27;;;1.60;;
5032;SDS011;2535;49.888;8.942;2023-07-29T09:27:48;35.87;;;1.30;;
5032;SDS011;2535;49.888;8.942;2023-07-29T09:30:15;36.37;;;1.67;;
5032;SDS011;2535;49.888;8.942;2023-07-29T09:32:41;36.10;;;1.30;;
5032;SDS011;2535;49.888;8.942;2023-07-29T09:35:11;35.60;;;1.40;;
5032;SDS011;2535;49.888;8.942;2023-07-29T09:37:37;35.13;;;1.40;;
5032;SDS011;2535;49.888;8.942;2023-07-29T09:40:04;33.77;;;1.20;;
5032;SDS011;2535;49.888;8.942;2023-07-29T09:42:30;34.07;;;1.30;;
5032;SDS011;2535;49.888;8.942;2023-07-29T09:44:56;33.77;;;1.30;;
5032;SDS011;2535;49.888;8.942;2023-07-29T09:47:23;34.20;;;1.57;;
5032;SDS011;2535;49.888;8.942;2023-07-29T09:49:50;33.80;;;1.10;;
5032;SDS011;2535;49.888;8.942;2023-07-29T09:52:16;33.70;;;1.20;;
5032;SDS011;2535;49.888;8.942;2023-07-29T09:54:43;33.10;;;1.10;;
5032;SDS011;2535;49.888;8.942;2023-07-29T09:57:10;33.20;;;1.30;;
5032;SDS011;2535;49.888;8.942;2023-07-29T09:59:37;32.90;;;0.97;;
5032;SDS011;2535;49.888;8.942;2023-07-29T10:02:03;32.70;;;0.90;;
5032;SDS011;2535;49.888;8.942;2023-07-29T10:04:29;33.60;;;1.40;;
5032;SDS011;2535;49.888;8.942;2023-07-29T10:06:55;32.67;;;1.00;;
5032;SDS011;2535;49.888;8.942;2023-07-29T10:09:22;32.27;;;1.20;;
5032;SDS011;2535;49.888;8.942;2023-07-29T10:11:48;31.90;;;1.07;;
5032;SDS011;2535;49.888;8.942;2023-07-29T10:14:16;31.90;;;1.07;;
5032;SDS011;2535;49.888;8.942;2023-07-29T10:16:42;31.60;;;1.30;;
5032;SDS011;2535;49.888;8.942;2023-07-29T10:19:10;31.67;;;1.20;;
5032;SDS011;2535;49.888;8.942;2023-07-29T10:21:38;34.30;;;1.40;;
5032;SDS011;2535;49.888;8.942;2023-07-29T10:24:04;31.30;;;1.13;;
5032;SDS011;2535;49.888;8.942;2023-07-29T10:26:31;30.90;;;1.10;;
5032;SDS011;2535;49.888;8.942;2023-07-29T10:28:59;31.10;;;1.10;;
5032;SDS011;2535;49.888;8.942;2023-07-29T10:31:29;35.03;;;1.30;;
5032;SDS011;2535;49.888;8.942;2023-07-29T10:33:55;31.20;;;1.23;;
5032;SDS011;2535;49.888;8.942;2023-07-29T10:36:22;30.60;;;1.00;;
5032;SDS011;2535;49.888;8.942;2023-07-29T10:38:48;30.60;;;1.00;;
5032;SDS011;2535;49.888;8.942;2023-07-29T10:41:14;31.00;;;1.10;;
5032;SDS011;2535;49.888;8.942;2023-07-29T10:43:40;30.80;;;1.27;;
5032;SDS011;2535;49.888;8.942;2023-07-29T10:46:16;31.13;;;1.30;;
5032;SDS011;2535;49.888;8.942;2023-07-29T10:48:43;30.20;;;1.10;;
5032;SDS011;2535;49.888;8.942;2023-07-29T10:51:22;30.20;;;1.20;;
5032;SDS011;2535;49.888;8.942;2023-07-29T10:53:51;30.27;;;1.33;;
5032;SDS011;2535;49.888;8.942;2023-07-29T10:56:24;29.90;;;1.20;;
5032;SDS011;2535;49.888;8.942;2023-07-29T10:58:50;30.57;;;1.77;;
5032;SDS011;2535;49.888;8.942;2023-07-29T11:01:26;29.97;;;1.20;;
5032;SDS011;2535;49.888;8.942;2023-07-29T11:07:01;30.17;;;1.40;;
5032;SDS011;2535;49.888;8.942;2023-07-29T11:14:52;29.30;;;1.20;;
5032;SDS011;2535;49.888;8.942;2023-07-29T11:17:18;29.50;;;1.40;;
5032;SDS011;2535;49.888;8.942;2023-07-29T11:19:44;28.97;;;1.03;;
5032;SDS011;2535;49.888;8.942;2023-07-29T11:22:11;28.17;;;1.00;;
5032;SDS011;2535;49.888;8.942;2023-07-29T11:24:37;28.87;;;1.30;;
5032;SDS011;2535;49.888;8.942;2023-07-29T11:27:04;28.93;;;1.10;;
5032;SDS011;2535;49.888;8.942;2023-07-29T11:29:30;27.90;;;1.20;;
5032;SDS011;2535;49.888;8.942;2023-07-29T11:31:56;27.70;;;1.17;;
5032;SDS011;2535;49.888;8.942;2023-07-29T11:34:31;28.43;;;1.40;;
5032;SDS011;2535;49.888;8.942;2023-07-29T11:36:57;28.00;;;1.10;;
5032;SDS011;2535;49.888;8.942;2023-07-29T11:39:23;27.30;;;1.10;;
5032;SDS011;2535;49.888;8.942;2023-07-29T11:41:49;27.37;;;1.20;;
5032;SDS011;2535;49.888;8.942;2023-07-29T11:44:18;27.30;;;1.13;;
5032;SDS011;2535;49.888;8.942;2023-07-29T11:46:44;27.83;;;1.30;;
5032;SDS011;2535;49.888;8.942;2023-07-29T11:49:10;27.53;;;1.20;;
5032;SDS011;2535;49.888;8.942;2023-07-29T11:51:36;26.20;;;1.40;;
5032;SDS011;2535;49.888;8.942;2023-07-29T11:54:02;25.47;;;1.30;;
5032;SDS011;2535;49.888;8.942;2023-07-29T11:56:29;24.97;;;1.47;;
5032;SDS011;2535;49.888;8.942;2023-07-29T11:58:55;24.73;;;1.40;;
5032;SDS011;2535;49.888;8.942;2023-07-29T12:01:22;24.50;;;1.10;;
5032;SDS011;2535;49.888;8.942;2023-07-29T12:03:48;25.33;;;1.20;;
5032;SDS011;2535;49.888;8.942;2023-07-29T12:06:15;24.80;;;1.20;;
5032;SDS011;2535;49.888;8.942;2023-07-29T12:08:41;24.20;;;1.00;;
5032;SDS011;2535;49.888;8.942;2023-07-29T12:11:08;24.33;;;1.00;;
5032;SDS011;2535;49.888;8.942;2023-07-29T12:13:36;27.50;;;1.00;;
5032;SDS011;2535;49.888;8.942;2023-07-29T12:16:05;24.97;;;1.30;;
5032;SDS011;2535;49.888;8.942;2023-07-29T12:18:32;24.57;;;1.40;;
5032;SDS011;2535;49.888;8.942;2023-07-29T12:20:58;23.87;;;1.00;;
5032;SDS011;2535;49.888;8.942;2023-07-29T12:23:24;23.77;;;1.40;;
5032;SDS011;2535;49.888;8.942;2023-07-29T12:25:51;24.17;;;1.23;;
5032;SDS011;2535;49.888;8.942;2023-07-29T12:28:17;23.53;;;1.17;;
5032;SDS011;2535;49.888;8.942;2023-07-29T12:30:43;24.00;;;1.43;;
5032;SDS011;2535;49.888;8.942;2023-07-29T12:33:09;23.77;;;1.50;;
5032;SDS011;2535;49.888;8.942;2023-07-29T12:35:36;23.30;;;1.30;;
5032;SDS011;2535;49.888;8.942;2023-07-29T12:38:02;23.70;;;1.47;;
5032;SDS011;2535;49.888;8.942;2023-07-29T12:40:28;23.07;;;1.13;;
5032;SDS011;2535;49.888;8.942;2023-07-29T12:42:54;23.37;;;1.30;;
5032;SDS011;2535;49.888;8.942;2023-07-29T12:45:20;22.77;;;1.10;;
5032;SDS011;2535;49.888;8.942;2023-07-29T12:47:51;22.57;;;1.10;;
5032;SDS011;2535;49.888;8.942;2023-07-29T12:50:17;23.10;;;1.13;;
5032;SDS011;2535;49.888;8.942;2023-07-29T12:52:43;22.47;;;1.10;;
5032;SDS011;2535;49.888;8.942;2023-07-29T12:55:09;23.53;;;1.10;;
5032;SDS011;2535;49.888;8.942;2023-07-29T12:57:38;23.30;;;1.40;;
5032;SDS011;2535;49.888;8.942;2023-07-29T13:00:04;23.07;;;1.00;;
5032;SDS011;2535;49.888;8.942;2023-07-29T13:02:31;23.53;;;1.30;;
5032;SDS011;2535;49.888;8.942;2023-07-29T13:04:57;22.57;;;1.00;;
5032;SDS011;2535;49.888;8.942;2023-07-29T13:07:23;22.50;;;0.90;;
5032;SDS011;2535;49.888;8.942;2023-07-29T13:09:49;23.60;;;1.20;;
5032;SDS011;2535;49.888;8.942;2023-07-29T13:12:15;22.53;;;1.00;;
5032;SDS011;2535;49.888;8.942;2023-07-29T13:14:40;22.93;;;1.30;;
5032;SDS011;2535;49.888;8.942;2023-07-29T13:17:06;23.10;;;1.33;;
5032;SDS011;2535;49.888;8.942;2023-07-29T13:19:32;24.23;;;1.50;;
5032;SDS011;2535;49.888;8.942;2023-07-29T13:21:58;22.30;;;1.10;;
5032;SDS011;2535;49.888;8.942;2023-07-29T13:24:24;22.00;;;1.00;;
5032;SDS011;2535;49.888;8.942;2023-07-29T13:26:50;22.50;;;1.00;;
5032;SDS011;2535;49.888;8.942;2023-07-29T13:29:16;22.27;;;0.97;;
5032;SDS011;2535;49.888;8.942;2023-07-29T13:31:42;21.77;;;0.90;;
5032;SDS011;2535;49.888;8.942;2023-07-29T13:34:08;22.43;;;1.20;;
5032;SDS011;2535;49.888;8.942;2023-07-29T13:36:34;24.20;;;1.20;;
5032;SDS011;2535;49.888;8.942;2023-07-29T13:39:00;22.40;;;1.20;;
5032;SDS011;2535;49.888;8.942;2023-07-29T13:41:26;22.17;;;1.03;;
5032;SDS011;2535;49.888;8.942;2023-07-29T13:43:52;21.77;;;0.97;;
5032;SDS011;2535;49.888;8.942;2023-07-29T13:46:18;21.77;;;1.00;;
5032;SDS011;2535;49.888;8.942;2023-07-29T13:48:46;22.03;;;1.20;;
5032;SDS011;2535;49.888;8.942;2023-07-29T13:51:12;21.77;;;1.10;;
5032;SDS011;2535;49.888;8.942;2023-07-29T13:53:38;21.60;;;1.00;;
5032;SDS011;2535;49.888;8.942;2023-07-29T13:56:04;22.13;;;1.40;;
5032;SDS011;2535;49.888;8.942;2023-07-29T13:58:30;21.63;;;1.10;;
5032;SDS011;2535;49.888;8.942;2023-07-29T14:00:56;21.37;;;1.00;;
5032;SDS011;2535;49.888;8.942;2023-07-29T14:03:22;22.47;;;1.17;;
5032;SDS011;2535;49.888;8.942;2023-07-29T14:05:48;21.50;;;1.03;;
5032;SDS011;2535;49.888;8.942;2023-07-29T14:08:14;21.70;;;1.30;;
5032;SDS011;2535;49.888;8.942;2023-07-29T14:10:40;21.17;;;1.00;;
5032;SDS011;2535;49.888;8.942;2023-07-29T14:13:06;20.93;;;1.00;;
5032;SDS011;2535;49.888;8.942;2023-07-29T14:15:32;21.23;;;0.90;;
5032;SDS011;2535;49.888;8.942;2023-07-29T14:17:58;23.30;;;1.30;;
5032;SDS011;2535;49.888;8.942;2023-07-29T14:20:24;20.97;;;1.10;;
5032;SDS011;2535;49.888;8.942;2023-07-29T14:22:50;20.57;;;0.90;;
5032;SDS011;2535;49.888;8.942;2023-07-29T14:25:16;20.97;;;1.07;;
5032;SDS011;2535;49.888;8.942;2023-07-29T14:27:42;20.47;;;1.00;;
5032;SDS011;2535;49.888;8.942;2023-07-29T14:30:08;20.83;;;1.10;;
5032;SDS011;2535;49.888;8.942;2023-07-29T14:32:34;20.63;;;1.27;;
5032;SDS011;2535;49.888;8.942;2023-07-29T14:35:00;20.50;;;1.10;;
5032;SDS011;2535;49.888;8.942;2023-07-29T14:37:29;20.67;;;1.07;;
5032;SDS011;2535;49.888;8.942;2023-07-29T14:39:55;20.90;;;1.03;;
5032;SDS011;2535;49.888;8.942;2023-07-29T14:42:21;20.77;;;0.90;;
5032;SDS011;2535;49.888;8.942;2023-07-29T14:44:47;20.67;;;0.87;;
5032;SDS011;2535;49.888;8.942;2023-07-29T14:47:13;20.40;;;0.90;;
5032;SDS011;2535;49.888;8.942;2023-07-29T14:49:39;20.43;;;0.87;;
5032;SDS011;2535;49.888;8.942;2023-07-29T14:52:05;20.13;;;0.80;;
5032;SDS011;2535;49.888;8.942;2023-07-29T14:54:31;20.37;;;1.00;;
5032;SDS011;2535;49.888;8.942;2023-07-29T14:56:57;19.90;;;0.80;;
5032;SDS011;2535;49.888;8.942;2023-07-29T14:59:23;20.17;;;0.80;;
5032;SDS011;2535;49.888;8.942;2023-07-29T15:01:49;20.63;;;1.07;;
5032;SDS011;2535;49.888;8.942;2023-07-29T15:04:15;20.77;;;0.90;;
5032;SDS011;2535;49.888;8.942;2023-07-29T15:06:41;21.67;;;1.20;;